Date,TemperatureHighF,TemperatureAvgF,TemperatureLowF,DewpointHighF,DewpointAvgF,DewpointLowF,HumidityHigh,HumidityAvg,HumidityLow,PressureMaxIn,PressureMinIn,WindSpeedMaxMPH,WindSpeedAvgMPH,GustSpeedMaxMPH,PrecipitationSumIn
2013-1-1,38,33,21,28,22,9,73,64,55,29.97,29.80,6,3,18,0.04
2013-1-2,28,22,16,17,12,8,72,65,57,30.11,29.95,5,2,13,0.00
2013-1-3,27,20,9,18,7,0,69,56,46,30.15,30.02,4,2,14,0.00
2013-1-4,36,31,24,26,22,17,78,70,65,30.01,29.86,5,2,14,0.00
2013-1-5,40,33,28,27,22,20,72,64,54,30.25,29.91,6,2,14,0.00
2013-1-6,42,34,28,34,28,20,91,80,66,30.20,29.93,3,0,8,0.00
2013-1-7,39,34,27,30,25,20,87,71,55,30.39,29.99,5,2,15,0.00
2013-1-8,45,36,27,34,29,23,89,77,63,30.40,30.30,5,1,12,0.00
2013-1-9,45,38,29,39,33,27,94,82,68,30.37,30.09,5,1,15,0.00
2013-1-10,44,39,33,37,31,25,76,71,58,30.53,30.12,3,2,9,0.00
2013-1-11,42,35,30,42,30,24,99,84,73,30.52,30.14,3,1,7,0.27
2013-1-12,43,42,39,43,42,39,100,100,99,30.17,30.09,2,0,5,0.03
2013-1-13,50,44,40,49,44,40,100,99,92,30.15,30.00,3,1,10,0.01
2013-1-14,55,47,35,53,43,29,100,87,56,30.27,29.91,6,2,14,0.05
2013-1-15,37,35,33,32,30,27,92,82,71,30.31,30.21,3,1,7,0.06
2013-1-16,34,32,30,33,31,27,100,96,75,30.22,29.83,4,1,7,0.03
2013-1-17,42,35,29,33,30,17,100,83,61,30.08,29.86,5,1,12,0.34
2013-1-18,29,24,20,18,9,2,65,53,38,30.46,30.02,6,3,17,0.00
2013-1-19,44,36,21,36,27,10,81,68,58,30.40,29.91,7,4,20,0.01
2013-1-20,51,42,28,35,29,14,78,61,34,29.96,29.63,6,4,18,0.00
2013-1-21,28,26,20,24,16,10,96,67,50,30.09,29.80,4,1,14,0.00
2013-1-22,24,19,12,23,10,-3,96,70,38,30.10,29.76,7,2,17,0.00
2013-1-23,16,11,7,0,-3,-5,66,53,42,30.16,30.08,5,2,17,0.00
2013-1-24,19,11,3,2,-4,-7,70,51,35,30.27,30.11,8,3,20,0.00
2013-1-25,22,16,11,15,2,-2,90,56,35,30.34,30.03,6,2,17,0.00
2013-1-26,23,17,12,15,9,3,93,72,49,30.29,29.99,6,3,16,0.00
2013-1-27,30,21,14,10,4,-1,72,49,30,30.47,30.29,5,3,15,0.00
2013-1-28,33,26,20,32,16,-1,98,69,35,30.46,29.98,2,0,6,0.00
2013-1-29,39,34,30,35,33,30,99,95,85,30.16,29.97,3,1,6,0.10
2013-1-30,57,48,36,56,48,36,100,100,99,30.12,29.47,7,3,24,0.02
2013-1-31,57,42,30,57,27,13,99,57,41,29.67,29.08,8,6,24,0.00
2013-2-1,30,26,19,17,11,6,65,52,39,30.13,29.66,7,4,16,0.00
2013-2-2,29,23,17,20,11,7,87,60,44,30.25,30.05,5,2,15,0.00
2013-2-3,30,24,18,20,18,15,94,79,58,30.06,29.74,2,1,7,0.00
2013-2-4,29,25,21,17,12,7,81,59,42,29.94,29.75,7,2,20,0.00
2013-2-5,26,24,22,23,18,8,95,78,53,29.98,29.91,2,0,3,0.00
2013-2-6,38,30,24,28,21,2,95,71,35,30.32,29.89,5,2,13,0.03
2013-2-7,30,25,20,16,9,2,64,50,36,30.50,30.32,5,2,10,0.00
2013-2-8,31,28,24,31,25,14,99,89,60,30.40,29.55,7,4,23,0.00
2013-2-9,26,21,18,23,12,2,97,72,36,30.23,29.58,9,6,27,0.00
2013-2-10,35,23,14,19,6,0,76,49,23,30.42,30.23,7,3,17,0.01
2013-2-11,46,37,24,46,35,17,100,92,75,30.33,29.64,5,1,13,0.16
2013-2-12,44,39,34,41,32,26,100,75,55,29.92,29.66,7,3,18,0.00
2013-2-13,42,35,31,27,25,24,75,68,51,29.91,29.66,3,1,7,0.00
2013-2-14,43,35,29,29,27,24,96,75,47,29.93,29.70,3,2,9,0.00
2013-2-16,36,33,28,30,24,21,86,70,59,29.88,29.67,5,3,13,0.00
2013-2-17,27,23,16,25,9,2,91,55,36,29.80,29.50,10,7,28,0.00
2013-2-18,31,22,14,9,5,1,62,48,31,30.18,29.80,8,5,26,0.00
2013-2-19,46,36,25,44,30,9,99,78,51,30.19,29.62,5,2,15,0.39
2013-2-20,40,32,23,38,20,10,93,63,46,29.86,29.61,8,4,18,0.01
2013-2-21,31,25,21,17,14,12,73,64,53,30.24,29.85,8,5,26,0.00
2013-2-22,39,30,21,28,22,15,84,72,52,30.38,30.24,5,2,14,0.00
2013-2-23,36,34,31,35,32,27,99,92,83,30.29,29.82,4,2,12,0.22
2013-2-24,37,34,31,36,34,29,100,97,87,29.89,29.69,5,3,16,0.13
2013-2-25,43,36,30,31,29,26,93,77,61,30.23,29.89,4,2,10,0.00
2013-2-26,40,36,32,33,30,28,94,81,64,30.30,30.05,4,1,8,0.04
2013-2-27,42,39,34,42,39,32,100,98,93,30.05,29.55,6,3,13,1.32
2013-2-28,44,38,34,42,37,34,100,97,86,29.62,29.52,3,1,8,0.01
2013-3-1,44,38,35,36,32,28,95,79,59,29.71,29.54,4,3,12,0.00
2013-3-2,37,34,32,30,28,27,84,78,68,29.71,29.65,5,3,11,0.00
2013-3-3,35,30,28,28,24,22,87,78,62,29.67,29.59,5,4,14,0.00
2013-3-4,39,31,27,26,23,21,80,72,57,29.80,29.65,8,5,20,0.00
2013-3-5,42,33,28,31,25,22,81,74,60,30.03,29.80,6,3,14,0.00
2013-3-6,39,35,34,35,32,30,92,86,80,30.02,29.92,8,4,20,0.00
2013-3-7,36,33,32,32,31,30,99,91,78,30.00,29.92,7,5,17,0.02
2013-3-8,37,32,30,34,31,29,100,96,74,30.12,29.92,3,1,9,0.03
2013-3-9,48,37,33,32,27,24,87,70,39,30.32,30.12,5,3,13,0.34
2013-3-10,49,36,31,35,31,27,93,83,55,30.38,30.28,3,1,7,0.00
2013-3-11,49,41,34,44,38,32,98,91,78,30.32,30.13,3,1,9,0.00
2013-3-12,53,48,41,53,48,41,100,98,89,30.13,29.71,7,3,20,1.44
2013-3-13,48,42,36,41,31,26,93,67,43,29.83,29.72,6,3,14,0.00
2013-3-14,38,34,31,29,28,27,86,79,66,29.82,29.79,3,2,8,0.00
2013-3-18,35,32,26,28,16,4,96,56,29,30.40,30.11,4,3,11,0.00
2013-3-19,38,33,29,37,32,28,99,97,94,30.11,29.62,6,3,13,0.43
2013-3-20,40,33,27,32,22,18,96,64,42,29.82,29.72,7,3,17,0.00
2013-3-21,35,31,28,28,24,18,94,78,58,29.82,29.62,3,1,13,0.00
2013-3-22,29,26,24,18,15,14,65,61,55,29.68,29.66,3,2,9,0.00
2013-3-26,43,39,37,24,22,21,51,49,46,29.82,29.75,3,2,5,0.00
2013-3-27,52,42,33,29,24,20,64,50,32,29.90,29.76,6,3,14,0.00
2013-3-28,48,42,36,35,32,29,85,67,51,30.05,29.89,4,2,14,0.00
2013-3-29,54,46,39,35,32,28,76,59,40,30.08,29.98,4,3,11,0.00
2013-3-30,55,46,38,33,27,20,74,51,26,30.11,30.00,5,3,12,0.00
2013-3-31,55,45,34,43,30,-100,98,59,37,30.13,29.67,6,2,14,0.20
2013-4-1,59,46,35,47,40,18,99,82,49,29.84,29.55,7,3,18,0.13
2013-4-2,40,34,28,22,15,10,68,47,29,30.01,29.83,8,4,21,0.00
2013-4-3,44,36,30,17,15,11,57,43,29,30.22,29.99,7,4,22,0.00
2013-4-4,50,38,29,33,22,14,85,53,32,30.35,30.09,6,3,16,0.00
2013-4-5,60,45,38,36,29,20,86,59,25,30.09,29.62,6,3,16,0.00
2013-4-6,48,39,32,26,15,7,64,41,19,30.32,29.91,7,3,18,0.00
2013-4-7,52,42,32,44,35,25,93,75,55,30.32,30.02,8,3,21,0.00
2013-4-8,67,53,43,45,43,41,98,72,40,30.06,29.97,5,2,10,0.00
2013-4-9,76,61,46,54,46,40,99,64,33,30.05,29.88,7,3,22,0.01
2013-4-10,68,53,47,53,47,41,98,83,50,29.96,29.83,6,2,13,0.21
2013-4-11,60,50,44,49,46,36,100,85,58,30.09,29.80,6,2,14,0.01
2013-4-12,45,41,37,38,35,30,99,81,59,30.09,29.74,8,4,20,0.32
2013-4-13,52,44,36,40,37,35,99,79,52,29.94,29.73,5,2,11,0.03
2013-4-14,53,47,41,40,34,26,88,61,41,30.22,29.93,7,3,18,0.00
2013-4-15,55,45,38,39,31,26,93,58,43,30.39,30.22,4,1,9,0.00
2013-4-16,60,50,38,52,45,37,99,86,64,30.39,30.12,6,3,16,0.00
2013-4-17,66,57,48,53,41,31,96,60,31,30.30,30.10,5,3,14,0.02
2013-4-18,58,49,39,47,39,32,91,71,39,30.38,30.14,6,2,15,0.00
2013-4-19,70,58,50,64,57,47,100,96,81,30.14,29.69,7,3,19,0.02
2013-4-20,60,53,42,60,41,28,100,68,35,30.22,29.65,7,4,23,0.28
2013-4-21,53,42,34,33,24,20,78,50,29,30.65,30.22,7,3,17,0.00
2013-4-22,55,43,32,36,32,27,91,66,38,30.68,30.53,6,2,13,0.00
2013-4-23,44,41,37,42,37,31,96,87,72,30.53,30.06,5,3,14,0.00
2013-4-24,67,51,40,48,44,38,98,79,43,30.07,29.85,6,4,15,0.00
2013-4-25,62,53,46,51,36,20,99,59,25,30.26,29.87,7,3,16,0.03
2013-4-26,66,53,39,38,30,20,62,42,31,30.38,30.26,4,2,12,0.00
2013-4-27,63,51,40,43,38,31,94,64,33,30.40,30.27,4,2,11,0.00
2013-4-28,66,52,38,46,36,-100,100,65,30,30.33,30.22,5,2,12,0.00
2013-4-29,60,53,46,48,42,35,93,70,42,30.27,30.22,4,1,10,0.00
2013-4-30,65,55,47,42,33,22,76,49,20,30.34,30.24,4,1,14,0.00
2013-5-1,68,53,41,47,38,28,84,58,41,30.47,30.34,4,1,11,0.00
2013-5-2,73,57,42,47,43,39,97,63,33,30.45,30.31,4,1,13,0.00
2013-5-3,67,54,45,47,41,34,94,62,42,30.47,30.33,5,2,9,0.00
2013-5-4,69,52,41,47,43,40,96,74,40,30.37,30.23,4,2,16,0.00
2013-5-5,63,48,36,46,40,35,98,79,45,30.30,30.20,4,1,9,0.00
2013-5-6,69,54,41,52,46,39,96,76,50,30.28,30.14,3,1,10,0.00
2013-5-7,74,59,44,60,52,43,100,81,57,30.18,30.09,4,1,11,0.00
2013-5-8,67,59,55,63,58,54,100,96,84,30.14,30.02,5,2,14,0.30
2013-5-9,63,57,52,61,57,52,100,99,92,30.03,29.86,1,0,5,0.93
2013-5-10,78,64,54,61,54,-100,100,78,43,29.98,29.91,3,1,9,0.00
2013-5-11,64,61,58,63,60,58,100,97,93,29.82,29.69,3,2,12,0.41
2013-5-12,69,59,52,59,49,-100,100,75,33,29.84,29.59,4,1,10,0.06
2013-5-13,58,50,42,34,31,28,69,50,35,30.05,29.84,4,2,13,0.00
2013-5-14,57,48,39,37,32,28,77,55,33,30.07,30.00,3,1,9,0.00
2013-5-15,60,50,39,55,45,38,100,86,48,30.08,29.70,4,1,12,0.04
2013-5-16,55,51,49,52,50,48,100,96,78,29.73,29.70,1,0,2,0.00
2013-5-17,68,60,52,47,42,39,82,54,36,30.20,30.07,1,0,3,0.00
2013-5-18,69,57,46,55,49,45,99,76,46,30.31,30.20,3,1,12,0.00
2013-5-19,59,54,48,56,52,47,100,94,82,30.35,30.21,2,0,8,0.02
2013-5-20,79,65,55,69,62,55,100,90,69,30.21,29.94,3,1,11,0.01
2013-5-21,84,71,60,71,66,60,100,86,64,29.96,29.82,4,1,14,0.00
2013-5-22,76,62,52,70,60,51,99,93,80,29.94,29.85,2,0,9,0.00
2013-5-23,72,65,63,69,64,62,100,98,89,29.91,29.78,4,2,14,0.27
2013-5-24,70,59,46,66,58,44,100,95,83,29.84,29.65,4,2,11,0.91
2013-5-25,46,44,42,45,44,41,100,98,95,29.85,29.78,4,2,13,0.41
2013-5-26,58,50,42,45,42,39,95,75,57,30.16,29.83,4,2,15,0.01
2013-5-27,73,58,43,47,42,38,89,59,30,30.20,30.09,3,1,11,0.00
2013-5-28,72,57,46,57,50,44,99,80,42,30.22,30.15,2,0,8,0.04
2013-5-29,75,64,56,68,62,56,100,93,75,30.16,30.00,2,1,9,0.07
2013-5-30,90,75,61,73,67,61,100,78,52,30.10,30.02,2,1,9,0.00
2013-5-31,92,77,64,74,67,63,99,75,44,30.10,29.97,2,1,11,0.00
2013-6-1,87,75,66,71,68,64,94,79,58,30.00,29.89,3,1,12,0.00
2013-6-2,83,71,63,71,65,-100,97,86,68,29.91,29.77,4,2,14,0.00
2013-6-3,79,67,64,70,65,57,100,94,69,29.84,29.77,2,0,6,0.66
2013-6-4,71,62,51,57,47,40,77,60,43,30.07,29.84,3,2,12,0.00
2013-6-5,73,61,51,53,49,47,87,66,45,30.19,30.07,3,1,7,0.00
2013-6-6,69,58,51,61,54,49,99,88,61,30.17,30.07,2,0,6,0.06
2013-6-7,59,57,54,59,57,54,100,100,98,30.07,29.71,2,1,6,4.57
2013-6-8,77,63,52,67,60,52,100,90,68,30.02,29.57,3,1,9,1.07
2013-6-9,76,67,57,64,60,56,96,80,62,30.17,30.02,1,0,6,0.00
2013-6-10,71,62,57,64,60,56,100,93,74,30.17,29.91,2,1,8,0.63
2013-6-11,78,65,58,71,63,58,100,95,71,29.91,29.56,4,1,12,0.62
2013-6-12,67,63,60,62,57,54,94,81,68,29.72,29.62,4,2,14,0.01
2013-6-13,55,54,52,55,54,52,100,100,99,29.61,29.56,2,2,6,0.60
2013-6-14,70,59,51,59,54,51,100,87,60,29.82,29.55,2,1,8,0.43
2013-6-15,78,67,58,59,55,47,92,69,35,29.96,29.82,2,1,7,0.00
2013-6-16,77,66,54,66,59,51,92,79,52,29.96,29.74,3,1,10,0.00
2013-6-17,84,70,61,69,64,60,99,83,56,29.91,29.80,3,1,12,0.26
2013-6-18,80,66,58,71,64,58,100,93,68,29.91,29.80,2,0,6,0.40
2013-6-19,76,64,54,60,55,49,100,76,40,30.14,29.87,2,1,7,0.00
2013-6-20,79,64,50,59,52,47,91,67,48,30.26,30.13,2,0,7,0.00
2013-6-22,81,73,65,64,62,59,85,68,52,30.25,30.13,3,1,9,0.00
2013-6-23,85,72,60,72,66,59,97,83,59,30.17,30.04,3,1,13,0.00
2013-6-24,92,77,69,78,71,66,100,84,58,30.06,29.90,2,1,8,0.00
2013-6-25,91,76,66,76,70,65,95,82,61,29.96,29.75,2,0,10,0.00
2013-6-26,82,75,70,74,71,69,100,89,74,29.81,29.73,2,0,6,0.01
2013-6-27,79,71,67,74,70,67,100,96,82,29.82,29.64,2,0,8,0.47
2013-6-28,79,73,68,74,71,68,100,94,81,29.63,29.49,4,2,12,0.15
2013-6-29,80,73,69,73,70,69,100,93,76,29.70,29.49,3,1,13,0.02
2013-6-30,79,72,70,74,71,69,100,96,84,29.93,29.70,2,1,8,0.04
2013-7-1,77,72,70,75,72,70,100,100,94,30.07,29.93,3,1,9,0.13
2013-7-2,79,73,71,76,72,71,100,97,87,30.17,30.07,3,1,9,0.05
2013-7-3,83,75,69,76,72,69,100,93,76,30.23,30.16,3,2,9,0.01
2013-7-4,88,78,72,78,74,72,100,89,68,30.23,30.13,3,1,10,0.00
2013-7-5,89,79,71,80,74,70,99,87,63,30.18,30.06,3,1,11,0.00
2013-7-6,91,80,72,77,74,71,98,84,61,30.09,29.99,2,1,6,0.00
2013-7-7,91,81,72,80,75,70,98,83,61,30.02,29.89,2,1,10,0.00
2013-7-8,88,77,71,76,70,-100,94,84,64,30.01,29.91,2,1,9,0.00
2013-7-9,80,73,68,76,72,68,100,97,84,30.06,29.99,1,0,4,0.16
2013-7-10,83,74,71,77,71,-100,100,93,81,30.02,29.79,3,1,12,0.00
2013-7-11,79,74,70,76,73,68,100,96,90,29.90,29.78,2,0,6,0.26
2013-7-12,78,71,68,70,67,62,95,86,77,30.14,29.90,2,1,5,0.00
2013-7-13,78,71,65,76,70,62,100,96,82,30.29,30.14,1,0,3,0.04
2013-7-14,89,78,72,79,75,72,100,90,67,30.31,30.20,1,0,8,0.00
2013-7-15,92,80,73,78,74,71,96,84,57,30.22,30.10,1,0,8,0.00
2013-7-16,92,81,73,75,72,69,88,76,52,30.16,30.09,2,0,5,0.00
2013-7-17,93,79,71,79,73,69,96,82,50,30.17,30.03,2,0,7,0.00
2013-7-18,96,83,75,80,75,71,93,78,52,30.03,29.93,2,1,6,0.00
2013-7-19,94,83,76,81,77,74,94,84,65,29.93,29.75,2,1,10,0.00
2013-7-20,91,80,74,78,74,-100,96,83,63,29.81,29.66,3,1,12,0.31
2013-7-21,84,73,65,73,68,64,100,85,63,29.96,29.81,1,0,3,0.35
2013-7-22,80,72,66,74,70,66,100,95,82,29.97,29.83,1,0,5,0.00
2013-7-23,85,74,70,77,72,70,100,95,73,29.83,29.55,3,1,9,0.20
2013-7-24,80,74,70,74,70,60,100,87,71,29.91,29.58,1,0,5,0.00
2013-7-25,67,59,56,60,56,52,100,91,75,30.06,29.91,2,0,6,0.32
2013-7-26,72,63,58,68,62,58,100,97,86,30.03,29.97,2,0,7,0.40
2013-7-27,81,71,65,69,66,64,100,86,58,30.05,29.98,2,1,8,0.00
2013-7-28,82,70,65,71,68,65,100,91,67,30.00,29.94,1,0,5,0.00
2013-7-29,84,74,68,74,70,62,100,89,66,30.03,29.95,2,0,8,0.00
2013-7-30,78,69,62,65,61,56,85,76,60,30.12,30.04,2,0,9,0.00
2013-7-31,80,69,61,67,62,58,96,79,53,30.14,30.04,1,0,5,0.00
2013-8-1,76,66,62,69,65,62,100,96,80,30.04,29.85,2,0,10,0.07
2013-8-2,81,71,64,69,66,63,100,86,58,29.87,29.77,2,0,7,0.11
2013-8-3,76,68,64,68,65,62,97,89,76,29.88,29.80,2,1,10,0.01
2013-8-4,75,65,59,63,60,55,99,82,63,29.91,29.82,2,1,6,0.00
2013-8-5,75,64,57,57,54,49,91,71,43,30.03,29.91,2,1,10,0.00
2013-8-6,77,64,53,64,57,51,94,78,53,30.13,30.03,2,0,6,0.00
2013-8-7,76,66,57,65,61,56,99,85,61,30.18,30.10,3,1,10,0.00
2013-8-8,78,71,66,73,69,64,99,95,84,30.11,30.02,2,1,9,0.02
2013-8-9,75,73,71,75,72,70,100,99,98,30.03,29.78,3,1,11,0.35
2013-8-10,80,72,64,72,66,57,100,83,60,30.03,29.81,2,0,7,0.01
2013-8-11,78,66,56,63,56,50,94,73,50,30.10,30.01,2,1,7,0.00
2013-8-12,82,69,63,68,64,61,99,85,51,30.04,29.92,2,0,6,0.00
2013-8-13,72,67,64,70,64,-100,100,96,87,29.93,29.69,1,0,5,0.11
2013-8-14,66,63,61,66,60,56,100,91,84,29.77,29.71,2,1,4,0.00
2013-8-15,75,54,60,58,20,-100,87,58,45,30.13,30.04,2,0,6,0.00
2013-8-16,79,65,55,61,53,-100,98,73,48,30.20,30.11,3,0,8,0.00
2013-8-17,82,68,55,64,60,54,97,79,47,30.27,30.20,1,0,4,0.00
2013-8-18,75,64,60,65,59,-100,99,87,65,30.27,30.11,1,0,4,0.00
2013-8-19,78,64,59,68,47,-100,95,81,65,30.11,29.99,1,0,5,0.00
2013-8-20,84,72,64,66,61,-100,94,76,49,30.11,30.01,2,0,6,0.00
2013-8-21,87,73,62,70,65,61,98,78,49,30.15,30.05,2,0,6,0.00
2013-8-22,76,71,67,73,70,67,100,97,89,30.05,29.86,2,1,7,0.26
2013-8-23,79,70,62,70,64,59,100,82,53,30.09,29.84,2,1,7,0.00
2013-8-24,78,65,56,61,56,52,95,74,46,30.33,30.09,2,0,5,0.00
2013-8-25,81,66,54,62,55,-100,100,74,34,30.37,30.20,2,1,7,0.00
2013-8-26,78,68,65,68,64,60,99,85,71,30.21,29.91,2,1,6,0.68
2013-8-27,80,70,67,74,69,67,100,97,81,29.91,29.80,2,0,5,0.40
2013-8-28,86,75,68,75,72,68,100,89,69,29.90,29.83,2,0,6,0.02
2013-8-29,73,68,63,69,66,62,100,94,84,30.03,29.90,1,0,3,0.00
2013-8-30,78,68,60,71,66,59,100,94,79,30.02,29.85,1,0,5,0.00
2013-8-31,79,73,69,74,71,69,100,96,85,29.85,29.79,3,1,9,0.00
2013-9-1,78,73,71,75,70,-100,100,95,87,29.85,29.81,2,1,7,0.01
2013-9-2,76,73,71,75,73,71,100,100,96,29.83,29.69,2,0,6,1.45
2013-9-3,74,69,62,73,69,61,100,99,89,29.84,29.70,2,1,5,0.13
2013-9-4,77,66,58,64,60,57,96,82,56,29.95,29.84,2,0,8,0.00
2013-9-5,74,65,54,62,56,48,94,75,55,30.12,29.89,2,1,9,0.00
2013-9-6,60,53,50,53,48,46,90,84,78,30.22,30.12,1,0,3,0.00
2013-9-7,76,63,50,60,54,46,89,73,51,30.12,29.90,1,0,8,0.00
2013-9-8,75,65,54,65,55,-100,95,74,50,30.07,29.78,3,1,15,0.00
2013-9-9,69,57,46,54,48,43,91,75,47,30.24,30.07,2,0,6,0.00
2013-9-10,75,66,57,72,65,54,100,93,87,30.17,30.04,4,1,17,0.00
2013-9-11,71,70,70,71,70,70,100,100,99,30.09,30.06,1,0,8,0.00
2013-9-12,82,75,68,75,72,68,100,91,79,29.89,29.69,3,2,9,0.56
2013-9-13,76,68,58,68,65,54,100,91,72,29.77,29.59,2,0,9,0.00
2013-9-14,67,57,51,55,52,49,95,85,65,30.08,29.77,3,1,8,0.00
2013-9-15,67,53,48,56,47,-100,94,84,54,30.19,30.08,3,1,5,0.00
2013-9-16,66,59,51,58,55,40,99,86,67,30.23,30.03,2,1,8,0.00
2013-9-17,61,50,42,47,41,38,88,72,51,30.42,30.23,3,1,10,0.00
2013-9-18,46,43,41,45,41,40,99,95,88,30.35,30.32,0,0,0,0.00
2013-9-19,76,62,51,59,54,49,95,78,51,30.19,30.06,2,0,5,0.00
2013-9-20,77,62,51,62,57,51,100,85,55,30.09,30.01,2,0,6,0.00
2013-9-21,71,62,54,68,59,-100,100,94,84,30.03,29.72,4,1,16,0.00
2013-9-22,69,62,50,68,57,44,100,84,63,29.86,29.64,6,1,17,0.61
2013-9-23,61,52,46,48,45,42,91,79,59,30.01,29.86,3,1,8,0.00
2013-9-24,66,53,43,49,45,41,95,77,47,30.02,29.84,2,1,8,0.00
2013-9-25,69,57,48,56,51,46,95,81,55,29.95,29.86,2,1,4,0.00
2013-9-26,63,57,50,56,52,49,97,86,67,30.11,29.96,1,0,5,0.00
2013-9-27,62,55,48,55,52,47,99,90,77,30.26,30.11,1,0,4,0.00
2013-9-28,72,57,48,60,54,48,100,89,60,30.33,30.25,2,0,4,0.00
2013-9-29,68,55,49,58,49,-100,100,87,46,30.26,30.10,1,0,4,0.00
2013-9-30,68,57,48,56,52,48,100,87,58,30.11,29.97,2,0,6,0.00
2013-10-1,65,62,55,59,58,54,96,85,79,29.98,29.91,1,1,2,0.00
2013-10-2,79,68,61,64,60,57,90,78,57,29.99,29.88,3,0,9,0.00
2013-10-3,76,66,60,59,55,50,93,70,40,30.10,29.99,2,1,7,0.00
2013-10-4,75,63,57,68,61,56,100,92,77,30.07,29.99,2,0,5,0.00
2013-10-5,72,63,57,66,60,56,99,93,79,30.10,30.03,1,0,3,0.00
2013-10-6,61,60,58,61,60,58,100,100,99,30.16,30.08,1,0,3,0.03
2013-10-7,72,65,59,71,64,57,100,98,90,30.09,29.83,4,1,18,0.36
2013-10-8,63,57,50,57,48,44,96,75,49,30.35,29.91,3,1,14,0.00
2013-10-9,63,52,44,51,46,41,91,79,59,30.39,30.34,2,0,5,0.00
2013-10-10,61,54,47,56,51,45,100,91,83,30.34,30.13,1,0,4,0.00
2013-10-11,68,59,54,61,56,48,96,87,75,30.14,30.05,2,0,5,0.00
2013-10-12,70,59,52,59,52,45,90,79,65,30.34,30.11,3,1,8,0.00
2013-10-13,59,52,47,52,47,-100,96,87,76,30.41,30.32,2,0,5,0.00
2013-10-14,63,49,41,52,45,41,100,89,51,30.39,30.26,1,0,3,0.00
2013-10-15,70,54,45,54,48,43,100,83,53,30.27,30.15,2,0,5,0.00
2013-10-16,65,56,48,57,52,47,98,88,73,30.16,29.93,1,0,4,0.00
2013-10-17,68,61,55,62,59,54,99,94,81,29.92,29.74,2,0,6,0.00
2013-10-18,66,61,53,62,53,43,99,76,51,29.94,29.65,3,1,9,0.02
2013-10-19,63,56,45,51,46,41,90,70,54,29.99,29.75,2,0,7,0.00
2013-10-20,60,54,48,56,41,-100,96,66,41,30.05,29.72,3,1,9,0.00
2013-10-21,65,53,45,47,41,38,86,66,40,30.14,30.01,3,1,9,0.00
2013-10-22,67,55,46,54,49,41,99,80,56,30.00,29.72,4,1,12,0.00
2013-10-23,48,45,42,42,38,36,85,75,66,29.81,29.61,2,0,10,0.00
2013-10-24,52,45,39,37,32,28,87,64,42,29.93,29.70,4,1,12,0.00
2013-10-25,48,44,38,33,31,29,75,61,47,30.18,29.94,4,2,12,0.00
2013-10-26,52,45,36,39,34,30,85,66,44,30.18,29.90,5,2,18,0.00
2013-10-27,56,48,41,39,32,-100,68,56,40,30.09,29.84,3,1,11,0.00
2013-10-28,59,46,37,38,32,-100,80,62,41,30.33,30.09,3,1,13,0.00
2013-10-29,50,42,38,33,29,27,76,62,45,30.42,30.33,3,0,7,0.00
2013-10-30,56,46,37,49,39,28,95,77,66,30.36,30.19,2,0,9,0.00
2013-10-31,63,53,43,60,52,42,100,96,87,30.24,29.83,3,1,10,0.11
2013-11-1,65,61,58,63,59,55,99,92,79,29.83,29.53,6,2,20,0.11
2013-11-2,67,57,50,56,46,41,92,69,40,29.75,29.60,3,1,7,0.00
2013-11-3,52,43,33,46,31,-100,88,65,46,30.40,29.74,4,2,11,0.00
2013-11-4,43,35,29,24,19,16,74,53,34,30.68,30.40,4,1,11,0.00
2013-11-5,50,41,31,39,33,24,84,75,60,30.68,30.52,3,1,7,0.00
2013-11-6,59,50,41,53,45,38,97,83,61,30.52,30.08,3,1,12,0.00
2013-11-7,62,53,40,60,51,35,98,92,80,30.08,29.72,5,2,17,0.31
2013-11-13,35,30,24,20,16,13,76,58,40,30.30,30.21,5,3,16,0.00
2013-11-14,50,41,29,28,21,17,68,47,30,30.22,30.08,3,2,10,0.00
2013-11-15,57,47,40,40,30,22,87,54,27,30.23,30.14,4,2,12,0.00
2013-11-16,60,49,44,46,35,-100,99,63,38,30.31,30.21,3,1,8,0.00
2013-11-17,58,51,40,58,50,39,100,98,91,30.29,29.84,3,1,8,0.07
2013-11-18,64,58,49,58,48,33,100,72,44,29.84,29.57,5,3,18,0.03
2013-11-19,49,41,32,32,26,21,66,56,47,30.30,29.70,8,5,24,0.00
2013-11-20,39,33,27,21,18,15,67,55,43,30.61,30.30,6,3,14,0.00
2013-11-21,48,36,25,39,26,16,84,68,44,30.63,30.40,2,0,6,0.00
2013-11-22,51,47,44,50,45,40,99,93,84,30.38,29.86,2,0,7,0.12
2013-11-23,51,41,30,48,27,-100,92,63,37,29.97,29.84,6,3,17,0.00
2013-11-24,29,23,20,17,6,1,68,48,36,30.26,29.88,9,6,25,0.00
2013-11-25,33,24,18,22,12,6,69,58,45,30.40,30.25,7,3,23,0.00
2013-11-26,44,36,32,43,26,21,100,71,51,30.31,29.92,4,1,12,0.32
2013-11-27,60,48,40,60,48,39,100,99,98,29.92,29.27,6,5,15,0.84
2013-11-28,32,29,24,19,15,13,67,56,46,30.45,30.04,7,3,20,0.00
2013-11-29,34,28,24,22,18,14,83,65,56,30.71,30.45,3,1,10,0.00
2013-11-30,32,26,18,26,16,-100,81,69,45,30.76,30.42,2,1,7,0.00
2013-12-1,41,35,31,40,33,26,100,93,81,30.39,30.00,3,0,6,0.02
2013-12-2,42,36,32,40,35,32,100,98,85,30.01,29.89,3,1,5,0.00
2013-12-3,46,37,31,40,34,31,100,92,73,29.97,29.85,4,2,8,0.01
2013-12-4,49,40,34,37,33,30,88,76,57,30.16,29.98,5,1,10,0.00
2013-12-10,33,32,31,33,32,31,99,98,97,30.02,29.80,4,1,6,0.00
2013-12-12,23,20,16,18,10,7,84,66,54,30.29,30.11,6,2,17,0.00
2013-12-13,31,24,18,18,14,8,78,63,54,30.33,30.04,6,3,16,0.00
2013-12-14,26,19,14,25,13,-100,97,81,67,30.53,30.03,4,3,10,0.00
2013-12-15,32,29,25,32,28,24,99,97,91,30.03,29.43,6,2,12,0.00
2013-12-16,28,24,18,25,18,10,92,77,61,30.20,29.76,3,1,10,0.00
2013-12-17,21,16,11,19,13,9,95,90,78,30.23,29.91,5,1,12,0.00
2013-12-18,33,24,14,25,19,12,92,81,68,30.11,29.87,6,3,15,0.02
2013-12-19,43,34,26,32,26,20,80,71,56,30.14,29.98,4,1,16,0.13
2013-12-20,50,42,35,40,34,28,89,73,58,30.11,29.95,4,1,11,0.10
2013-12-21,56,48,44,51,44,-100,99,91,77,30.00,29.89,4,2,12,0.00
2013-12-22,62,57,52,58,55,51,98,93,81,29.98,29.81,7,3,19,0.00
2013-12-23,58,52,46,56,51,46,100,98,93,30.09,29.88,3,1,7,0.44
2013-12-24,36,32,26,23,21,14,76,64,53,30.24,30.03,5,3,18,0.00
2013-12-25,25,21,16,13,9,6,69,60,48,30.52,30.25,5,2,12,0.00
2013-12-26,33,26,21,27,21,12,90,78,67,30.46,30.10,4,1,10,0.00
2013-12-27,37,30,26,24,23,21,90,75,53,30.30,30.21,4,1,10,0.00
2014-1-2,10,9,9,8,7,6,91,91,91,29.74,29.72,6,6,16,0.00